sensor_id;sensor_type;location;lat;lon;timestamp;pressure;altitude;pressure_sealevel;temperature;humidity
51928;BME280;37953;52.806;18.270;2023-04-16T00:01:19;100471.56;;;10.34;100.00
51928;BME280;37953;52.806;18.270;2023-04-16T00:03:49;100475.91;;;10.35;100.00
51928;BME280;37953;52.806;18.270;2023-04-16T00:06:15;100468.97;;;10.33;100.00
51928;BME280;37953;52.806;18.270;2023-04-16T00:08:41;100468.97;;;10.36;100.00
51928;BME280;37953;52.806;18.270;2023-04-16T00:11:08;100479.38;;;10.36;100.00
51928;BME280;37953;52.806;18.270;2023-04-16T00:13:34;100473.28;;;10.34;100.00
51928;BME280;37953;52.806;18.270;2023-04-16T00:16:00;100479.38;;;10.33;100.00
51928;BME280;37953;52.806;18.270;2023-04-16T00:18:26;100485.41;;;10.35;100.00
51928;BME280;37953;52.806;18.270;2023-04-16T00:20:58;100490.63;;;10.33;100.00
51928;BME280;37953;52.806;18.270;2023-04-16T00:23:24;100488.00;;;10.33;100.00
51928;BME280;37953;52.806;18.270;2023-04-16T00:25:50;100480.22;;;10.32;100.00
51928;BME280;37953;52.806;18.270;2023-04-16T00:28:18;100488.84;;;10.32;100.00
51928;BME280;37953;52.806;18.270;2023-04-16T00:30:44;100492.34;;;10.33;100.00
51928;BME280;37953;52.806;18.270;2023-04-16T00:33:10;100488.84;;;10.32;100.00
51928;BME280;37953;52.806;18.270;2023-04-16T00:35:36;100488.00;;;10.32;100.00
51928;BME280;37953;52.806;18.270;2023-04-16T00:38:02;100489.75;;;10.31;100.00
51928;BME280;37953;52.806;18.270;2023-04-16T00:40:28;100491.47;;;10.29;100.00
51928;BME280;37953;52.806;18.270;2023-04-16T00:42:55;100487.13;;;10.31;100.00
51928;BME280;37953;52.806;18.270;2023-04-16T00:45:21;100494.91;;;10.30;100.00
51928;BME280;37953;52.806;18.270;2023-04-16T00:47:47;100495.78;;;10.30;100.00
51928;BME280;37953;52.806;18.270;2023-04-16T00:50:13;100496.66;;;10.29;100.00
51928;BME280;37953;52.806;18.270;2023-04-16T00:52:39;100489.69;;;10.28;100.00
51928;BME280;37953;52.806;18.270;2023-04-16T00:55:06;100498.34;;;10.29;100.00
51928;BME280;37953;52.806;18.270;2023-04-16T00:57:32;100497.47;;;10.28;100.00
51928;BME280;37953;52.806;18.270;2023-04-16T00:59:58;100499.25;;;10.31;100.00
51928;BME280;37953;52.806;18.270;2023-04-16T01:02:32;100497.53;;;10.31;100.00
51928;BME280;37953;52.806;18.270;2023-04-16T01:04:59;100500.97;;;10.30;100.00
51928;BME280;37953;52.806;18.270;2023-04-16T01:07:26;100510.50;;;10.30;100.00
51928;BME280;37953;52.806;18.270;2023-04-16T01:09:51;100500.09;;;10.30;100.00
51928;BME280;37953;52.806;18.270;2023-04-16T01:12:17;100504.41;;;10.28;100.00
51928;BME280;37953;52.806;18.270;2023-04-16T01:14:43;100505.25;;;10.28;100.00
51928;BME280;37953;52.806;18.270;2023-04-16T01:17:10;100509.63;;;10.29;100.00
51928;BME280;37953;52.806;18.270;2023-04-16T01:19:36;100508.72;;;10.27;100.00
51928;BME280;37953;52.806;18.270;2023-04-16T01:22:08;100513.94;;;10.29;100.00
51928;BME280;37953;52.806;18.270;2023-04-16T01:24:34;100511.34;;;10.30;100.00
51928;BME280;37953;52.806;18.270;2023-04-16T01:27:00;100513.94;;;10.29;100.00
51928;BME280;37953;52.806;18.270;2023-04-16T01:29:26;100511.34;;;10.29;100.00
51928;BME280;37953;52.806;18.270;2023-04-16T01:31:52;100509.56;;;10.26;100.00
51928;BME280;37953;52.806;18.270;2023-04-16T01:34:18;100510.47;;;10.27;100.00
51928;BME280;37953;52.806;18.270;2023-04-16T01:36:45;100509.56;;;10.26;100.00
51928;BME280;37953;52.806;18.270;2023-04-16T01:39:11;100505.25;;;10.24;100.00
51928;BME280;37953;52.806;18.270;2023-04-16T01:41:46;100510.47;;;10.27;100.00
51928;BME280;37953;52.806;18.270;2023-04-16T01:44:12;100511.31;;;10.26;100.00
51928;BME280;37953;52.806;18.270;2023-04-16T01:46:38;100513.91;;;10.26;100.00
51928;BME280;37953;52.806;18.270;2023-04-16T01:49:04;100503.53;;;10.23;100.00
51928;BME280;37953;52.806;18.270;2023-04-16T01:51:32;100510.44;;;10.24;100.00
51928;BME280;37953;52.806;18.270;2023-04-16T01:53:58;100504.38;;;10.22;100.00
51928;BME280;37953;52.806;18.270;2023-04-16T01:56:24;100506.06;;;10.19;100.00
51928;BME280;37953;52.806;18.270;2023-04-16T01:58:51;100499.16;;;10.17;100.00
51928;BME280;37953;52.806;18.270;2023-04-16T02:01:17;100502.63;;;10.19;100.00
51928;BME280;37953;52.806;18.270;2023-04-16T02:03:43;100508.69;;;10.19;100.00
51928;BME280;37953;52.806;18.270;2023-04-16T02:06:10;100512.13;;;10.20;100.00
51928;BME280;37953;52.806;18.270;2023-04-16T02:08:36;100506.97;;;10.18;100.00
51928;BME280;37953;52.806;18.270;2023-04-16T02:11:02;100500.88;;;10.15;100.00
51928;BME280;37953;52.806;18.270;2023-04-16T02:13:28;100512.16;;;10.18;100.00
51928;BME280;37953;52.806;18.270;2023-04-16T02:15:54;100506.06;;;10.18;100.00
51928;BME280;37953;52.806;18.270;2023-04-16T02:18:20;100514.75;;;10.18;100.00
51928;BME280;37953;52.806;18.270;2023-04-16T02:20:46;100509.53;;;10.15;100.00
51928;BME280;37953;52.806;18.270;2023-04-16T02:23:18;100517.34;;;10.18;100.00
51928;BME280;37953;52.806;18.270;2023-04-16T02:25:46;100516.47;;;10.16;100.00
51928;BME280;37953;52.806;18.270;2023-04-16T02:28:14;100520.78;;;10.16;100.00
51928;BME280;37953;52.806;18.270;2023-04-16T02:30:41;100515.59;;;10.17;100.00
51928;BME280;37953;52.806;18.270;2023-04-16T02:33:09;100522.53;;;10.18;100.00
51928;BME280;37953;52.806;18.270;2023-04-16T02:35:37;100525.97;;;10.17;100.00
51928;BME280;37953;52.806;18.270;2023-04-16T02:38:03;100525.97;;;10.17;100.00
51928;BME280;37953;52.806;18.270;2023-04-16T02:40:30;100522.53;;;10.18;100.00
51928;BME280;37953;52.806;18.270;2023-04-16T02:42:59;100523.41;;;10.19;100.00
51928;BME280;37953;52.806;18.270;2023-04-16T02:45:25;100525.97;;;10.17;100.00
51928;BME280;37953;52.806;18.270;2023-04-16T02:47:51;100525.13;;;10.17;100.00
51928;BME280;37953;52.806;18.270;2023-04-16T02:50:17;100522.50;;;10.17;100.00
51928;BME280;37953;52.806;18.270;2023-04-16T02:52:43;100527.72;;;10.14;100.00
51928;BME280;37953;52.806;18.270;2023-04-16T02:55:10;100525.97;;;10.14;100.00
51928;BME280;37953;52.806;18.270;2023-04-16T02:57:36;100532.91;;;10.14;100.00
51928;BME280;37953;52.806;18.270;2023-04-16T03:00:02;100532.88;;;10.12;100.00
51928;BME280;37953;52.806;18.270;2023-04-16T03:02:31;100532.88;;;10.12;100.00
51928;BME280;37953;52.806;18.270;2023-04-16T03:04:57;100535.44;;;10.09;100.00
51928;BME280;37953;52.806;18.270;2023-04-16T03:07:23;100534.59;;;10.10;100.00
51928;BME280;37953;52.806;18.270;2023-04-16T03:09:49;100539.78;;;10.09;100.00
51928;BME280;37953;52.806;18.270;2023-04-16T03:12:15;100528.53;;;10.08;100.00
51928;BME280;37953;52.806;18.270;2023-04-16T03:14:41;100537.19;;;10.09;100.00
51928;BME280;37953;52.806;18.270;2023-04-16T03:17:07;100543.25;;;10.08;100.00
51928;BME280;37953;52.806;18.270;2023-04-16T03:19:33;100543.22;;;10.09;100.00
51928;BME280;37953;52.806;18.270;2023-04-16T03:21:59;100540.66;;;10.08;100.00
51928;BME280;37953;52.806;18.270;2023-04-16T03:24:25;100547.53;;;10.07;100.00
51928;BME280;37953;52.806;18.270;2023-04-16T03:26:51;100554.47;;;10.07;100.00
51928;BME280;37953;52.806;18.270;2023-04-16T03:29:17;100548.41;;;10.06;100.00
51928;BME280;37953;52.806;18.270;2023-04-16T03:31:43;100554.44;;;10.05;100.00
51928;BME280;37953;52.806;18.270;2023-04-16T03:34:09;100547.53;;;10.04;100.00
51928;BME280;37953;52.806;18.270;2023-04-16T03:36:35;100557.94;;;10.06;100.00
51928;BME280;37953;52.806;18.270;2023-04-16T03:39:01;100553.59;;;10.05;100.00
51928;BME280;37953;52.806;18.270;2023-04-16T03:41:27;100558.78;;;10.05;100.00
51928;BME280;37953;52.806;18.270;2023-04-16T03:43:53;100552.72;;;10.03;100.00
51928;BME280;37953;52.806;18.270;2023-04-16T03:46:19;100557.03;;;10.05;100.00
51928;BME280;37953;52.806;18.270;2023-04-16T03:48:45;100553.56;;;10.03;100.00
51928;BME280;37953;52.806;18.270;2023-04-16T03:51:11;100555.31;;;10.03;100.00
51928;BME280;37953;52.806;18.270;2023-04-16T03:53:37;100560.47;;;10.01;100.00
51928;BME280;37953;52.806;18.270;2023-04-16T03:56:03;100559.63;;;10.01;100.00
51928;BME280;37953;52.806;18.270;2023-04-16T03:58:29;100560.47;;;10.01;100.00
51928;BME280;37953;52.806;18.270;2023-04-16T04:00:55;100568.25;;;10.01;100.00
51928;BME280;37953;52.806;18.270;2023-04-16T04:03:21;100570.88;;;9.99;100.00
51928;BME280;37953;52.806;18.270;2023-04-16T04:05:47;100576.06;;;9.99;100.00
51928;BME280;37953;52.806;18.270;2023-04-16T04:08:14;100572.56;;;9.96;100.00
51928;BME280;37953;52.806;18.270;2023-04-16T04:10:39;100579.53;;;10.00;100.00
51928;BME280;37953;52.806;18.270;2023-04-16T04:13:06;100576.03;;;9.98;100.00
51928;BME280;37953;52.806;18.270;2023-04-16T04:15:32;100579.50;;;9.97;100.00
51928;BME280;37953;52.806;18.270;2023-04-16T04:17:58;100583.81;;;9.96;100.00
51928;BME280;37953;52.806;18.270;2023-04-16T04:20:24;100585.56;;;9.97;100.00
51928;BME280;37953;52.806;18.270;2023-04-16T04:22:50;100587.28;;;9.97;100.00
51928;BME280;37953;52.806;18.270;2023-04-16T04:25:16;100586.44;;;9.98;100.00
51928;BME280;37953;52.806;18.270;2023-04-16T04:27:42;100590.75;;;9.97;100.00
51928;BME280;37953;52.806;18.270;2023-04-16T04:30:09;100589.00;;;9.96;100.00
51928;BME280;37953;52.806;18.270;2023-04-16T04:32:35;100600.28;;;9.97;100.00
51928;BME280;37953;52.806;18.270;2023-04-16T04:35:02;100602.88;;;9.97;100.00
51928;BME280;37953;52.806;18.270;2023-04-16T04:37:31;100608.94;;;9.99;100.00
51928;BME280;37953;52.806;18.270;2023-04-16T04:39:57;100605.47;;;9.97;100.00
51928;BME280;37953;52.806;18.270;2023-04-16T04:42:23;100600.28;;;9.97;100.00
51928;BME280;37953;52.806;18.270;2023-04-16T04:44:49;100602.88;;;9.97;100.00
51928;BME280;37953;52.806;18.270;2023-04-16T04:47:15;100605.47;;;9.97;100.00
51928;BME280;37953;52.806;18.270;2023-04-16T04:49:41;100607.16;;;9.96;100.00
51928;BME280;37953;52.806;18.270;2023-04-16T04:52:07;100615.84;;;9.98;100.00
51928;BME280;37953;52.806;18.270;2023-04-16T04:54:33;100608.94;;;9.99;100.00
51928;BME280;37953;52.806;18.270;2023-04-16T04:56:59;100610.66;;;10.00;100.00
51928;BME280;37953;52.806;18.270;2023-04-16T04:59:25;100612.38;;;10.01;100.00
51928;BME280;37953;52.806;18.270;2023-04-16T05:01:51;100616.75;;;10.02;100.00
51928;BME280;37953;52.806;18.270;2023-04-16T05:04:17;100618.47;;;10.02;100.00
51928;BME280;37953;52.806;18.270;2023-04-16T05:06:43;100621.06;;;10.02;100.00
51928;BME280;37953;52.806;18.270;2023-04-16T05:09:09;100618.47;;;10.03;100.00
51928;BME280;37953;52.806;18.270;2023-04-16T05:11:37;100626.25;;;10.03;100.00
51928;BME280;37953;52.806;18.270;2023-04-16T05:14:03;100625.38;;;10.03;100.00
51928;BME280;37953;52.806;18.270;2023-04-16T05:16:35;100636.63;;;10.03;100.00
51928;BME280;37953;52.806;18.270;2023-04-16T05:19:01;100630.59;;;10.04;100.00
51928;BME280;37953;52.806;18.270;2023-04-16T05:21:28;100638.38;;;10.04;100.00
51928;BME280;37953;52.806;18.270;2023-04-16T05:23:54;100640.13;;;10.07;100.00
51928;BME280;37953;52.806;18.270;2023-04-16T05:26:20;100641.84;;;10.05;100.00
51928;BME280;37953;52.806;18.270;2023-04-16T05:28:47;100644.44;;;10.05;100.00
51928;BME280;37953;52.806;18.270;2023-04-16T05:31:13;100649.63;;;10.05;100.00
51928;BME280;37953;52.806;18.270;2023-04-16T05:33:39;100645.28;;;10.05;100.00
51928;BME280;37953;52.806;18.270;2023-04-16T05:36:06;100647.88;;;10.05;100.00
51928;BME280;37953;52.806;18.270;2023-04-16T05:38:31;100647.88;;;10.02;100.00
51928;BME280;37953;52.806;18.270;2023-04-16T05:40:58;100655.69;;;10.05;100.00
51928;BME280;37953;52.806;18.270;2023-04-16T05:43:24;100663.47;;;10.04;100.00
51928;BME280;37953;52.806;18.270;2023-04-16T05:45:50;100667.78;;;10.02;100.00
51928;BME280;37953;52.806;18.270;2023-04-16T05:48:16;100665.19;;;10.03;100.00
51928;BME280;37953;52.806;18.270;2023-04-16T05:50:42;100659.09;;;10.01;100.00
51928;BME280;37953;52.806;18.270;2023-04-16T05:53:08;100662.59;;;10.02;100.00
51928;BME280;37953;52.806;18.270;2023-04-16T05:55:34;100664.28;;;10.01;100.00
51928;BME280;37953;52.806;18.270;2023-04-16T05:58:03;100668.66;;;10.02;100.00
51928;BME280;37953;52.806;18.270;2023-04-16T06:00:33;100672.97;;;10.02;100.00
51928;BME280;37953;52.806;18.270;2023-04-16T06:02:58;100679.03;;;10.02;100.00
51928;BME280;37953;52.806;18.270;2023-04-16T06:05:25;100681.63;;;10.02;100.00
51928;BME280;37953;52.806;18.270;2023-04-16T06:07:51;100678.16;;;10.02;100.00
51928;BME280;37953;52.806;18.270;2023-04-16T06:10:18;100684.22;;;10.02;100.00
51928;BME280;37953;52.806;18.270;2023-04-16T06:12:44;100680.75;;;10.03;100.00
51928;BME280;37953;52.806;18.270;2023-04-16T06:15:10;100687.69;;;10.03;100.00
51928;BME280;37953;52.806;18.270;2023-04-16T06:17:36;100693.72;;;10.03;100.00
51928;BME280;37953;52.806;18.270;2023-04-16T06:20:02;100686.81;;;10.02;100.00
51928;BME280;37953;52.806;18.270;2023-04-16T06:22:28;100694.59;;;10.02;100.00
51928;BME280;37953;52.806;18.270;2023-04-16T06:24:54;100704.13;;;10.02;100.00
51928;BME280;37953;52.806;18.270;2023-04-16T06:27:20;100700.66;;;10.03;100.00
51928;BME280;37953;52.806;18.270;2023-04-16T06:29:49;100697.19;;;10.02;100.00
51928;BME280;37953;52.806;18.270;2023-04-16T06:32:22;100711.06;;;10.04;100.00
51928;BME280;37953;52.806;18.270;2023-04-16T06:34:48;100696.34;;;10.02;100.00
51928;BME280;37953;52.806;18.270;2023-04-16T06:37:14;100702.41;;;10.04;100.00
51928;BME280;37953;52.806;18.270;2023-04-16T06:39:41;100707.59;;;10.05;100.00
51928;BME280;37953;52.806;18.270;2023-04-16T06:42:07;100705.00;;;10.07;100.00
51928;BME280;37953;52.806;18.270;2023-04-16T06:44:34;100706.75;;;10.06;100.00
51928;BME280;37953;52.806;18.270;2023-04-16T06:47:00;100709.34;;;10.06;100.00
51928;BME280;37953;52.806;18.270;2023-04-16T06:49:26;100704.19;;;10.08;100.00
51928;BME280;37953;52.806;18.270;2023-04-16T06:51:52;100717.16;;;10.09;100.00
51928;BME280;37953;52.806;18.270;2023-04-16T06:54:18;100709.38;;;10.11;100.00
51928;BME280;37953;52.806;18.270;2023-04-16T06:56:44;100717.19;;;10.12;100.00
51928;BME280;37953;52.806;18.270;2023-04-16T06:59:10;100705.94;;;10.13;100.00
51928;BME280;37953;52.806;18.270;2023-04-16T07:01:36;100708.56;;;10.15;100.00
51928;BME280;37953;52.806;18.270;2023-04-16T07:04:03;100716.34;;;10.16;100.00
51928;BME280;37953;52.806;18.270;2023-04-16T07:06:29;100718.09;;;10.17;100.00
51928;BME280;37953;52.806;18.270;2023-04-16T07:09:01;100722.44;;;10.18;100.00
51928;BME280;37953;52.806;18.270;2023-04-16T07:11:27;100729.34;;;10.19;100.00
51928;BME280;37953;52.806;18.270;2023-04-16T07:13:53;100720.72;;;10.21;100.00
51928;BME280;37953;52.806;18.270;2023-04-16T07:16:19;100727.63;;;10.22;100.00
51928;BME280;37953;52.806;18.270;2023-04-16T07:18:46;100725.03;;;10.22;100.00
51928;BME280;37953;52.806;18.270;2023-04-16T07:21:11;100719.84;;;10.22;100.00
51928;BME280;37953;52.806;18.270;2023-04-16T07:23:38;100725.03;;;10.22;100.00
51928;BME280;37953;52.806;18.270;2023-04-16T07:26:04;100725.91;;;10.22;100.00
51928;BME280;37953;52.806;18.270;2023-04-16T07:28:30;100725.03;;;10.22;100.00
51928;BME280;37953;52.806;18.270;2023-04-16T07:30:56;100726.78;;;10.23;100.00
51928;BME280;37953;52.806;18.270;2023-04-16T07:33:23;100725.09;;;10.25;100.00
51928;BME280;37953;52.806;18.270;2023-04-16T07:35:49;100730.28;;;10.25;100.00
51928;BME280;37953;52.806;18.270;2023-04-16T07:38:16;100735.47;;;10.26;100.00
51928;BME280;37953;52.806;18.270;2023-04-16T07:40:42;100736.34;;;10.28;100.00
51928;BME280;37953;52.806;18.270;2023-04-16T07:43:08;100737.22;;;10.27;100.00
51928;BME280;37953;52.806;18.270;2023-04-16T07:45:34;100735.56;;;10.31;100.00
51928;BME280;37953;52.806;18.270;2023-04-16T07:48:00;100742.47;;;10.32;100.00
51928;BME280;37953;52.806;18.270;2023-04-16T07:50:26;100743.38;;;10.35;100.00
51928;BME280;37953;52.806;18.270;2023-04-16T07:52:53;100744.25;;;10.37;100.00
51928;BME280;37953;52.806;18.270;2023-04-16T07:55:18;100745.97;;;10.37;100.00
51928;BME280;37953;52.806;18.270;2023-04-16T07:57:45;100748.59;;;10.38;100.00
51928;BME280;37953;52.806;18.270;2023-04-16T08:00:13;100749.44;;;10.39;100.00
51928;BME280;37953;52.806;18.270;2023-04-16T08:02:43;100757.22;;;10.39;100.00
51928;BME280;37953;52.806;18.270;2023-04-16T08:05:08;100752.91;;;10.38;100.00
51928;BME280;37953;52.806;18.270;2023-04-16T08:07:45;100752.06;;;10.41;100.00
51928;BME280;37953;52.806;18.270;2023-04-16T08:10:14;100759.00;;;10.40;100.00
51928;BME280;37953;52.806;18.270;2023-04-16T08:12:45;100757.28;;;10.42;100.00
51928;BME280;37953;52.806;18.270;2023-04-16T08:15:11;100763.34;;;10.44;100.00
51928;BME280;37953;52.806;18.270;2023-04-16T08:17:37;100756.41;;;10.43;100.00
51928;BME280;37953;52.806;18.270;2023-04-16T08:20:04;100762.50;;;10.44;100.00
51928;BME280;37953;52.806;18.270;2023-04-16T08:22:31;100768.56;;;10.44;100.00
51928;BME280;37953;52.806;18.270;2023-04-16T08:24:58;100766.81;;;10.45;100.00
51928;BME280;37953;52.806;18.270;2023-04-16T08:27:24;100765.09;;;10.45;100.00
51928;BME280;37953;52.806;18.270;2023-04-16T08:29:52;100768.56;;;10.44;100.00
51928;BME280;37953;52.806;18.270;2023-04-16T08:32:19;100777.22;;;10.46;100.00
51928;BME280;37953;52.806;18.270;2023-04-16T08:34:45;100776.38;;;10.46;100.00
51928;BME280;37953;52.806;18.270;2023-04-16T08:37:11;100780.66;;;10.45;100.00
51928;BME280;37953;52.806;18.270;2023-04-16T08:39:37;100786.75;;;10.46;100.00
51928;BME280;37953;52.806;18.270;2023-04-16T08:42:05;100786.75;;;10.46;100.00
51928;BME280;37953;52.806;18.270;2023-04-16T08:44:56;100786.75;;;10.47;100.00
51928;BME280;37953;52.806;18.270;2023-04-16T08:47:33;100796.31;;;10.51;100.00
51928;BME280;37953;52.806;18.270;2023-04-16T08:50:02;100799.78;;;10.50;100.00
51928;BME280;37953;52.806;18.270;2023-04-16T08:52:36;100803.22;;;10.51;100.00
51928;BME280;37953;52.806;18.270;2023-04-16T08:55:05;100802.34;;;10.49;100.00
51928;BME280;37953;52.806;18.270;2023-04-16T08:57:41;100803.22;;;10.49;100.00
51928;BME280;37953;52.806;18.270;2023-04-16T09:00:10;100814.47;;;10.48;100.00
51928;BME280;37953;52.806;18.270;2023-04-16T09:02:37;100816.16;;;10.45;100.00
51928;BME280;37953;52.806;18.270;2023-04-16T09:05:11;100814.44;;;10.45;100.00
51928;BME280;37953;52.806;18.270;2023-04-16T09:07:40;100819.63;;;10.45;100.00
51928;BME280;37953;52.806;18.270;2023-04-16T09:10:07;100818.78;;;10.46;100.00
51928;BME280;37953;52.806;18.270;2023-04-16T09:12:37;100817.06;;;10.47;100.00
51928;BME280;37953;52.806;18.270;2023-04-16T09:15:12;100822.28;;;10.48;100.00
51928;BME280;37953;52.806;18.270;2023-04-16T09:17:42;100825.72;;;10.49;100.00
51928;BME280;37953;52.806;18.270;2023-04-16T09:20:08;100830.94;;;10.49;100.00
51928;BME280;37953;52.806;18.270;2023-04-16T09:22:35;100830.94;;;10.50;100.00
51928;BME280;37953;52.806;18.270;2023-04-16T09:25:02;100832.66;;;10.51;100.00
51928;BME280;37953;52.806;18.270;2023-04-16T09:27:34;100837.03;;;10.52;100.00
51928;BME280;37953;52.806;18.270;2023-04-16T09:30:00;100840.50;;;10.53;100.00
51928;BME280;37953;52.806;18.270;2023-04-16T09:35:12;100840.50;;;10.54;100.00
51928;BME280;37953;52.806;18.270;2023-04-16T09:37:40;100842.22;;;10.54;100.00
51928;BME280;37953;52.806;18.270;2023-04-16T09:40:06;100842.25;;;10.57;100.00
51928;BME280;37953;52.806;18.270;2023-04-16T09:42:35;100846.56;;;10.58;100.00
51928;BME280;37953;52.806;18.270;2023-04-16T09:45:06;100850.97;;;10.61;100.00
51928;BME280;37953;52.806;18.270;2023-04-16T09:47:45;100851.84;;;10.64;100.00
51928;BME280;37953;52.806;18.270;2023-04-16T09:50:16;100855.31;;;10.65;100.00
51928;BME280;37953;52.806;18.270;2023-04-16T09:52:43;100855.31;;;10.66;100.00
51928;BME280;37953;52.806;18.270;2023-04-16T09:55:10;100856.19;;;10.67;100.00
51928;BME280;37953;52.806;18.270;2023-04-16T09:57:37;100855.34;;;10.68;100.00
51928;BME280;37953;52.806;18.270;2023-04-16T10:00:06;100857.06;;;10.69;100.00
51928;BME280;37953;52.806;18.270;2023-04-16T10:02:34;100858.81;;;10.70;100.00
51928;BME280;37953;52.806;18.270;2023-04-16T10:05:03;100864.00;;;10.70;100.00
51928;BME280;37953;52.806;18.270;2023-04-16T10:07:34;100870.06;;;10.70;100.00
51928;BME280;37953;52.806;18.270;2023-04-16T10:10:00;100865.75;;;10.71;100.00
51928;BME280;37953;52.806;18.270;2023-04-16T10:12:30;100876.16;;;10.72;100.00
51928;BME280;37953;52.806;18.270;2023-04-16T10:14:57;100879.63;;;10.71;100.00
51928;BME280;37953;52.806;18.270;2023-04-16T10:17:24;100878.72;;;10.71;100.00
51928;BME280;37953;52.806;18.270;2023-04-16T10:19:51;100878.75;;;10.72;100.00
51928;BME280;37953;52.806;18.270;2023-04-16T10:22:18;100873.59;;;10.74;100.00
51928;BME280;37953;52.806;18.270;2023-04-16T10:24:47;100880.50;;;10.73;100.00
51928;BME280;37953;52.806;18.270;2023-04-16T10:27:17;100878.78;;;10.74;100.00
51928;BME280;37953;52.806;18.270;2023-04-16T10:29:44;100889.19;;;10.75;100.00
51928;BME280;37953;52.806;18.270;2023-04-16T10:32:12;100889.16;;;10.74;100.00
51928;BME280;37953;52.806;18.270;2023-04-16T10:34:39;100887.44;;;10.74;100.00
51928;BME280;37953;52.806;18.270;2023-04-16T10:37:05;100892.63;;;10.74;100.00
51928;BME280;37953;52.806;18.270;2023-04-16T10:39:34;100884.81;;;10.73;100.00
51928;BME280;37953;52.806;18.270;2023-04-16T10:42:09;100883.13;;;10.73;100.00
51928;BME280;37953;52.806;18.270;2023-04-16T10:44:35;100892.59;;;10.73;100.00
51928;BME280;37953;52.806;18.270;2023-04-16T10:47:02;100892.63;;;10.74;100.00
51928;BME280;37953;52.806;18.270;2023-04-16T10:49:34;100894.38;;;10.74;100.00
51928;BME280;37953;52.806;18.270;2023-04-16T10:52:10;100894.38;;;10.75;100.00
51928;BME280;37953;52.806;18.270;2023-04-16T10:54:37;100901.28;;;10.72;100.00
51928;BME280;37953;52.806;18.270;2023-04-16T10:57:06;100897.81;;;10.73;100.00
51928;BME280;37953;52.806;18.270;2023-04-16T10:59:48;100901.31;;;10.73;100.00
51928;BME280;37953;52.806;18.270;2023-04-16T11:02:16;100903.00;;;10.71;100.00
51928;BME280;37953;52.806;18.270;2023-04-16T11:04:46;100899.53;;;10.69;100.00
51928;BME280;37953;52.806;18.270;2023-04-16T11:07:17;100903.84;;;10.67;100.00
51928;BME280;37953;52.806;18.270;2023-04-16T11:10:02;100907.31;;;10.69;100.00
51928;BME280;37953;52.806;18.270;2023-04-16T11:12:38;100912.50;;;10.71;100.00
51928;BME280;37953;52.806;18.270;2023-04-16T11:20:24;100922.94;;;10.72;100.00
51928;BME280;37953;52.806;18.270;2023-04-16T11:22:54;100923.78;;;10.70;100.00
51928;BME280;37953;52.806;18.270;2023-04-16T11:25:21;100922.06;;;10.72;100.00
51928;BME280;37953;52.806;18.270;2023-04-16T11:27:48;100925.53;;;10.72;100.00
51928;BME280;37953;52.806;18.270;2023-04-16T11:30:15;100927.25;;;10.72;100.00
51928;BME280;37953;52.806;18.270;2023-04-16T11:32:43;100932.47;;;10.72;100.00
51928;BME280;37953;52.806;18.270;2023-04-16T11:35:14;100928.16;;;10.74;100.00
51928;BME280;37953;52.806;18.270;2023-04-16T11:37:41;100929.00;;;10.73;100.00
51928;BME280;37953;52.806;18.270;2023-04-16T11:40:08;100931.59;;;10.71;100.00
51928;BME280;37953;52.806;18.270;2023-04-16T11:42:40;100935.06;;;10.72;100.00
51928;BME280;37953;52.806;18.270;2023-04-16T11:45:16;100932.47;;;10.73;100.00
51928;BME280;37953;52.806;18.270;2023-04-16T11:47:51;100930.72;;;10.72;100.00
51928;BME280;37953;52.806;18.270;2023-04-16T11:50:23;100930.69;;;10.71;100.00
51928;BME280;37953;52.806;18.270;2023-04-16T11:52:50;100937.66;;;10.72;100.00
51928;BME280;37953;52.806;18.270;2023-04-16T11:55:17;100931.59;;;10.71;100.00
51928;BME280;37953;52.806;18.270;2023-04-16T11:57:44;100936.78;;;10.73;100.00
51928;BME280;37953;52.806;18.270;2023-04-16T12:00:12;100934.22;;;10.74;100.00
51928;BME280;37953;52.806;18.270;2023-04-16T12:02:44;100942.06;;;10.77;100.00
51928;BME280;37953;52.806;18.270;2023-04-16T12:05:35;100936.91;;;10.82;100.00
51928;BME280;37953;52.806;18.270;2023-04-16T12:08:08;100937.72;;;10.81;100.00
51928;BME280;37953;52.806;18.270;2023-04-16T12:10:36;100939.47;;;10.80;100.00
51928;BME280;37953;52.806;18.270;2023-04-16T12:13:15;100934.28;;;10.84;100.00
51928;BME280;37953;52.806;18.270;2023-04-16T12:15:52;100939.53;;;10.87;100.00
51928;BME280;37953;52.806;18.270;2023-04-16T12:18:26;100941.25;;;10.86;100.00
51928;BME280;37953;52.806;18.270;2023-04-16T12:20:54;100935.19;;;10.87;100.00
51928;BME280;37953;52.806;18.270;2023-04-16T12:23:29;100941.25;;;10.88;100.00
51928;BME280;37953;52.806;18.270;2023-04-16T12:25:56;100936.09;;;10.89;100.00
51928;BME280;37953;52.806;18.270;2023-04-16T12:28:34;100943.91;;;10.91;100.00
51928;BME280;37953;52.806;18.270;2023-04-16T12:31:02;100943.06;;;10.95;100.00
51928;BME280;37953;52.806;18.270;2023-04-16T12:33:28;100940.47;;;10.95;100.00
51928;BME280;37953;52.806;18.270;2023-04-16T12:35:55;100947.41;;;10.97;100.00
51928;BME280;37953;52.806;18.270;2023-04-16T12:38:21;100930.97;;;10.98;100.00
51928;BME280;37953;52.806;18.270;2023-04-16T12:40:47;100941.38;;;11.00;100.00